sensor_id;sensor_type;location;lat;lon;timestamp;P1;durP1;ratioP1;P2;durP2;ratioP2
28170;SDS011;15458;53.346;-1.688;2022-09-13T00:00:47;4.75;;;1.35;;
28170;SDS011;15458;53.346;-1.688;2022-09-13T00:03:14;9.30;;;1.45;;
28170;SDS011;15458;53.346;-1.688;2022-09-13T00:05:41;8.77;;;1.30;;
28170;SDS011;15458;53.346;-1.688;2022-09-13T00:08:07;5.40;;;1.50;;
28170;SDS011;15458;53.346;-1.688;2022-09-13T00:10:35;5.68;;;1.55;;
28170;SDS011;15458;53.346;-1.688;2022-09-13T00:13:03;17.83;;;1.73;;
28170;SDS011;15458;53.346;-1.688;2022-09-13T00:15:30;11.57;;;1.70;;
28170;SDS011;15458;53.346;-1.688;2022-09-13T00:17:56;9.30;;;1.80;;
28170;SDS011;15458;53.346;-1.688;2022-09-13T00:20:22;5.50;;;1.33;;
28170;SDS011;15458;53.346;-1.688;2022-09-13T00:22:48;11.90;;;1.58;;
28170;SDS011;15458;53.346;-1.688;2022-09-13T00:25:13;6.20;;;1.55;;
28170;SDS011;15458;53.346;-1.688;2022-09-13T00:27:39;4.15;;;1.88;;
28170;SDS011;15458;53.346;-1.688;2022-09-13T00:30:06;7.20;;;1.70;;
28170;SDS011;15458;53.346;-1.688;2022-09-13T00:32:33;7.25;;;1.70;;
28170;SDS011;15458;53.346;-1.688;2022-09-13T00:34:59;10.82;;;2.22;;
28170;SDS011;15458;53.346;-1.688;2022-09-13T00:37:26;6.47;;;2.15;;
28170;SDS011;15458;53.346;-1.688;2022-09-13T00:39:51;6.20;;;2.60;;
28170;SDS011;15458;53.346;-1.688;2022-09-13T00:42:17;6.05;;;2.70;;
28170;SDS011;15458;53.346;-1.688;2022-09-13T00:52:44;7.95;;;2.78;;
28170;SDS011;15458;53.346;-1.688;2022-09-13T00:57:45;9.18;;;3.35;;
28170;SDS011;15458;53.346;-1.688;2022-09-13T01:00:12;8.65;;;2.33;;
28170;SDS011;15458;53.346;-1.688;2022-09-13T01:02:41;6.38;;;2.55;;
28170;SDS011;15458;53.346;-1.688;2022-09-13T01:05:10;13.15;;;2.80;;
28170;SDS011;15458;53.346;-1.688;2022-09-13T01:07:38;7.43;;;2.50;;
28170;SDS011;15458;53.346;-1.688;2022-09-13T01:10:04;13.45;;;3.78;;
28170;SDS011;15458;53.346;-1.688;2022-09-13T01:15:20;9.82;;;3.50;;
28170;SDS011;15458;53.346;-1.688;2022-09-13T01:17:46;6.20;;;2.70;;
28170;SDS011;15458;53.346;-1.688;2022-09-13T01:20:13;11.30;;;2.90;;
28170;SDS011;15458;53.346;-1.688;2022-09-13T01:37:25;7.85;;;2.42;;
28170;SDS011;15458;53.346;-1.688;2022-09-13T01:40:03;6.57;;;2.40;;
28170;SDS011;15458;53.346;-1.688;2022-09-13T01:42:59;9.00;;;2.67;;
28170;SDS011;15458;53.346;-1.688;2022-09-13T01:49:14;5.60;;;2.80;;
28170;SDS011;15458;53.346;-1.688;2022-09-13T01:51:39;8.75;;;3.03;;
28170;SDS011;15458;53.346;-1.688;2022-09-13T01:54:26;8.85;;;3.20;;
28170;SDS011;15458;53.346;-1.688;2022-09-13T01:57:13;12.98;;;4.20;;
28170;SDS011;15458;53.346;-1.688;2022-09-13T02:05:05;16.30;;;4.05;;
28170;SDS011;15458;53.346;-1.688;2022-09-13T02:07:55;7.63;;;4.05;;
28170;SDS011;15458;53.346;-1.688;2022-09-13T02:10:31;13.43;;;4.20;;
28170;SDS011;15458;53.346;-1.688;2022-09-13T02:13:00;12.23;;;4.47;;
28170;SDS011;15458;53.346;-1.688;2022-09-13T02:15:33;12.30;;;4.68;;
28170;SDS011;15458;53.346;-1.688;2022-09-13T02:18:06;12.65;;;4.50;;
28170;SDS011;15458;53.346;-1.688;2022-09-13T02:20:36;9.98;;;4.68;;
28170;SDS011;15458;53.346;-1.688;2022-09-13T02:23:11;8.23;;;4.35;;
28170;SDS011;15458;53.346;-1.688;2022-09-13T02:25:40;15.10;;;5.50;;
28170;SDS011;15458;53.346;-1.688;2022-09-13T02:28:10;13.48;;;4.93;;
28170;SDS011;15458;53.346;-1.688;2022-09-13T02:30:40;12.25;;;5.03;;
28170;SDS011;15458;53.346;-1.688;2022-09-13T02:33:31;12.65;;;5.13;;
28170;SDS011;15458;53.346;-1.688;2022-09-13T02:35:59;15.25;;;5.43;;
28170;SDS011;15458;53.346;-1.688;2022-09-13T02:38:31;11.52;;;5.82;;
28170;SDS011;15458;53.346;-1.688;2022-09-13T02:40:59;14.35;;;6.10;;
28170;SDS011;15458;53.346;-1.688;2022-09-13T02:43:54;9.38;;;5.57;;
28170;SDS011;15458;53.346;-1.688;2022-09-13T02:48:59;15.52;;;6.20;;
28170;SDS011;15458;53.346;-1.688;2022-09-13T02:51:39;11.05;;;5.53;;
28170;SDS011;15458;53.346;-1.688;2022-09-13T02:57:04;12.85;;;6.32;;
28170;SDS011;15458;53.346;-1.688;2022-09-13T02:59:34;15.63;;;6.53;;
28170;SDS011;15458;53.346;-1.688;2022-09-13T03:02:02;22.10;;;6.25;;
28170;SDS011;15458;53.346;-1.688;2022-09-13T03:04:34;13.98;;;7.03;;
28170;SDS011;15458;53.346;-1.688;2022-09-13T03:07:00;10.88;;;6.55;;
28170;SDS011;15458;53.346;-1.688;2022-09-13T03:09:30;15.15;;;6.30;;
28170;SDS011;15458;53.346;-1.688;2022-09-13T03:20:45;21.73;;;6.07;;
28170;SDS011;15458;53.346;-1.688;2022-09-13T03:26:38;12.77;;;6.07;;
28170;SDS011;15458;53.346;-1.688;2022-09-13T03:33:02;9.63;;;5.93;;
28170;SDS011;15458;53.346;-1.688;2022-09-13T03:40:45;9.07;;;5.43;;
28170;SDS011;15458;53.346;-1.688;2022-09-13T03:45:58;9.90;;;5.20;;
28170;SDS011;15458;53.346;-1.688;2022-09-13T03:48:27;10.07;;;5.07;;
28170;SDS011;15458;53.346;-1.688;2022-09-13T03:50:55;12.18;;;5.25;;
28170;SDS011;15458;53.346;-1.688;2022-09-13T03:53:24;6.85;;;4.57;;
28170;SDS011;15458;53.346;-1.688;2022-09-13T03:55:52;20.73;;;4.80;;
28170;SDS011;15458;53.346;-1.688;2022-09-13T03:58:19;19.85;;;4.25;;
28170;SDS011;15458;53.346;-1.688;2022-09-13T04:00:45;9.98;;;5.45;;
28170;SDS011;15458;53.346;-1.688;2022-09-13T04:03:12;8.85;;;5.22;;
28170;SDS011;15458;53.346;-1.688;2022-09-13T04:05:38;9.10;;;4.57;;
28170;SDS011;15458;53.346;-1.688;2022-09-13T04:08:05;6.05;;;4.45;;
28170;SDS011;15458;53.346;-1.688;2022-09-13T04:10:32;10.60;;;4.82;;
28170;SDS011;15458;53.346;-1.688;2022-09-13T04:12:59;8.70;;;4.50;;
28170;SDS011;15458;53.346;-1.688;2022-09-13T04:15:25;10.65;;;4.45;;
28170;SDS011;15458;53.346;-1.688;2022-09-13T04:17:51;10.52;;;5.18;;
28170;SDS011;15458;53.346;-1.688;2022-09-13T04:20:17;8.30;;;4.78;;
28170;SDS011;15458;53.346;-1.688;2022-09-13T04:22:49;11.10;;;5.95;;
28170;SDS011;15458;53.346;-1.688;2022-09-13T04:25:18;7.15;;;4.70;;
28170;SDS011;15458;53.346;-1.688;2022-09-13T04:27:45;9.23;;;4.93;;
28170;SDS011;15458;53.346;-1.688;2022-09-13T04:30:11;12.95;;;4.70;;
28170;SDS011;15458;53.346;-1.688;2022-09-13T04:32:37;8.57;;;4.85;;
28170;SDS011;15458;53.346;-1.688;2022-09-13T04:35:04;10.32;;;4.75;;
28170;SDS011;15458;53.346;-1.688;2022-09-13T04:37:30;8.18;;;4.00;;
28170;SDS011;15458;53.346;-1.688;2022-09-13T04:39:56;8.27;;;4.45;;
28170;SDS011;15458;53.346;-1.688;2022-09-13T04:42:22;11.98;;;4.60;;
28170;SDS011;15458;53.346;-1.688;2022-09-13T04:44:48;8.07;;;4.68;;
28170;SDS011;15458;53.346;-1.688;2022-09-13T04:47:14;7.25;;;3.88;;
28170;SDS011;15458;53.346;-1.688;2022-09-13T04:49:40;10.70;;;5.30;;
28170;SDS011;15458;53.346;-1.688;2022-09-13T04:52:06;6.65;;;4.60;;
28170;SDS011;15458;53.346;-1.688;2022-09-13T04:54:32;8.82;;;5.05;;
28170;SDS011;15458;53.346;-1.688;2022-09-13T04:56:57;10.07;;;4.25;;
28170;SDS011;15458;53.346;-1.688;2022-09-13T04:59:23;7.32;;;4.00;;
28170;SDS011;15458;53.346;-1.688;2022-09-13T05:01:49;113.47;;;4.30;;
28170;SDS011;15458;53.346;-1.688;2022-09-13T05:04:14;16.23;;;2.60;;
28170;SDS011;15458;53.346;-1.688;2022-09-13T05:06:40;5.43;;;2.88;;
28170;SDS011;15458;53.346;-1.688;2022-09-13T05:09:06;3.15;;;2.13;;
28170;SDS011;15458;53.346;-1.688;2022-09-13T05:11:31;4.70;;;2.63;;
28170;SDS011;15458;53.346;-1.688;2022-09-13T05:13:58;6.75;;;4.55;;
28170;SDS011;15458;53.346;-1.688;2022-09-13T05:16:25;8.00;;;5.60;;
28170;SDS011;15458;53.346;-1.688;2022-09-13T05:18:53;10.38;;;4.45;;
28170;SDS011;15458;53.346;-1.688;2022-09-13T05:21:19;14.93;;;5.13;;
28170;SDS011;15458;53.346;-1.688;2022-09-13T05:23:49;15.57;;;5.72;;
28170;SDS011;15458;53.346;-1.688;2022-09-13T05:26:16;16.35;;;6.28;;
28170;SDS011;15458;53.346;-1.688;2022-09-13T05:28:42;16.10;;;7.03;;
28170;SDS011;15458;53.346;-1.688;2022-09-13T05:31:22;15.65;;;6.93;;
28170;SDS011;15458;53.346;-1.688;2022-09-13T05:34:12;34.70;;;3.92;;
28170;SDS011;15458;53.346;-1.688;2022-09-13T05:36:40;7.68;;;3.25;;
28170;SDS011;15458;53.346;-1.688;2022-09-13T05:39:06;13.48;;;3.60;;
28170;SDS011;15458;53.346;-1.688;2022-09-13T05:41:37;16.80;;;3.38;;
28170;SDS011;15458;53.346;-1.688;2022-09-13T05:44:03;16.08;;;3.25;;
28170;SDS011;15458;53.346;-1.688;2022-09-13T05:46:29;33.20;;;4.57;;
28170;SDS011;15458;53.346;-1.688;2022-09-13T05:48:56;91.45;;;6.70;;
28170;SDS011;15458;53.346;-1.688;2022-09-13T05:51:23;30.55;;;5.05;;
28170;SDS011;15458;53.346;-1.688;2022-09-13T05:53:49;25.92;;;4.75;;
28170;SDS011;15458;53.346;-1.688;2022-09-13T05:56:23;18.45;;;5.40;;
28170;SDS011;15458;53.346;-1.688;2022-09-13T05:58:51;10.77;;;4.72;;
28170;SDS011;15458;53.346;-1.688;2022-09-13T06:01:21;13.25;;;4.88;;
28170;SDS011;15458;53.346;-1.688;2022-09-13T06:03:50;51.78;;;5.13;;
28170;SDS011;15458;53.346;-1.688;2022-09-13T06:06:17;35.22;;;5.28;;
28170;SDS011;15458;53.346;-1.688;2022-09-13T06:08:44;31.10;;;5.78;;
28170;SDS011;15458;53.346;-1.688;2022-09-13T06:11:11;27.38;;;5.55;;
28170;SDS011;15458;53.346;-1.688;2022-09-13T06:13:38;20.20;;;5.50;;
28170;SDS011;15458;53.346;-1.688;2022-09-13T06:16:05;55.08;;;6.13;;
28170;SDS011;15458;53.346;-1.688;2022-09-13T06:18:32;70.15;;;4.18;;
28170;SDS011;15458;53.346;-1.688;2022-09-13T06:21:05;72.80;;;4.93;;
28170;SDS011;15458;53.346;-1.688;2022-09-13T06:23:33;43.25;;;4.50;;
28170;SDS011;15458;53.346;-1.688;2022-09-13T06:26:09;37.22;;;4.60;;
28170;SDS011;15458;53.346;-1.688;2022-09-13T06:28:37;23.23;;;4.88;;
28170;SDS011;15458;53.346;-1.688;2022-09-13T06:31:07;15.60;;;3.95;;
28170;SDS011;15458;53.346;-1.688;2022-09-13T06:33:35;14.00;;;4.97;;
28170;SDS011;15458;53.346;-1.688;2022-09-13T06:36:03;42.75;;;4.10;;
28170;SDS011;15458;53.346;-1.688;2022-09-13T06:38:30;74.38;;;4.22;;
28170;SDS011;15458;53.346;-1.688;2022-09-13T06:40:59;42.75;;;5.70;;
28170;SDS011;15458;53.346;-1.688;2022-09-13T06:43:25;12.35;;;4.30;;
28170;SDS011;15458;53.346;-1.688;2022-09-13T06:45:51;42.30;;;4.25;;
28170;SDS011;15458;53.346;-1.688;2022-09-13T06:48:18;31.17;;;4.63;;
28170;SDS011;15458;53.346;-1.688;2022-09-13T06:50:43;10.95;;;4.28;;
28170;SDS011;15458;53.346;-1.688;2022-09-13T06:53:09;199.70;;;9.27;;
28170;SDS011;15458;53.346;-1.688;2022-09-13T06:55:35;20.45;;;4.40;;
28170;SDS011;15458;53.346;-1.688;2022-09-13T06:58:01;33.70;;;4.40;;
28170;SDS011;15458;53.346;-1.688;2022-09-13T07:00:26;31.27;;;4.55;;
28170;SDS011;15458;53.346;-1.688;2022-09-13T07:02:52;13.00;;;3.67;;
28170;SDS011;15458;53.346;-1.688;2022-09-13T07:05:18;6.93;;;3.70;;
28170;SDS011;15458;53.346;-1.688;2022-09-13T07:07:44;6.75;;;3.75;;
28170;SDS011;15458;53.346;-1.688;2022-09-13T07:10:10;6.32;;;3.33;;
28170;SDS011;15458;53.346;-1.688;2022-09-13T07:12:36;19.77;;;4.13;;
28170;SDS011;15458;53.346;-1.688;2022-09-13T07:15:04;5.80;;;3.60;;
28170;SDS011;15458;53.346;-1.688;2022-09-13T07:17:30;6.90;;;3.25;;
28170;SDS011;15458;53.346;-1.688;2022-09-13T07:19:55;9.85;;;3.58;;
28170;SDS011;15458;53.346;-1.688;2022-09-13T07:22:21;9.50;;;3.58;;
28170;SDS011;15458;53.346;-1.688;2022-09-13T07:24:51;5.00;;;3.50;;
28170;SDS011;15458;53.346;-1.688;2022-09-13T07:27:16;9.10;;;3.15;;
28170;SDS011;15458;53.346;-1.688;2022-09-13T07:29:42;9.07;;;3.63;;
28170;SDS011;15458;53.346;-1.688;2022-09-13T07:32:08;11.00;;;4.15;;
28170;SDS011;15458;53.346;-1.688;2022-09-13T07:34:33;51.85;;;4.57;;
28170;SDS011;15458;53.346;-1.688;2022-09-13T07:36:59;7.95;;;3.58;;
28170;SDS011;15458;53.346;-1.688;2022-09-13T07:39:26;5.47;;;2.90;;
28170;SDS011;15458;53.346;-1.688;2022-09-13T07:41:51;16.33;;;3.40;;
28170;SDS011;15458;53.346;-1.688;2022-09-13T07:44:17;7.05;;;3.45;;
28170;SDS011;15458;53.346;-1.688;2022-09-13T07:46:43;9.68;;;3.45;;
28170;SDS011;15458;53.346;-1.688;2022-09-13T07:49:10;29.02;;;5.78;;
28170;SDS011;15458;53.346;-1.688;2022-09-13T07:51:38;13.32;;;4.03;;
28170;SDS011;15458;53.346;-1.688;2022-09-13T07:54:08;12.00;;;4.60;;
28170;SDS011;15458;53.346;-1.688;2022-09-13T07:56:36;8.88;;;5.05;;
28170;SDS011;15458;53.346;-1.688;2022-09-13T07:59:04;7.50;;;4.30;;
28170;SDS011;15458;53.346;-1.688;2022-09-13T08:04:06;6.40;;;3.78;;
28170;SDS011;15458;53.346;-1.688;2022-09-13T08:06:41;7.07;;;4.50;;
28170;SDS011;15458;53.346;-1.688;2022-09-13T08:09:10;11.07;;;4.63;;
28170;SDS011;15458;53.346;-1.688;2022-09-13T08:11:41;6.32;;;3.92;;
28170;SDS011;15458;53.346;-1.688;2022-09-13T08:14:10;10.48;;;4.65;;
28170;SDS011;15458;53.346;-1.688;2022-09-13T08:16:39;6.28;;;3.72;;
28170;SDS011;15458;53.346;-1.688;2022-09-13T08:19:05;6.80;;;3.08;;
28170;SDS011;15458;53.346;-1.688;2022-09-13T08:21:33;6.07;;;2.70;;
28170;SDS011;15458;53.346;-1.688;2022-09-13T08:24:02;5.07;;;2.78;;
28170;SDS011;15458;53.346;-1.688;2022-09-13T08:26:29;5.68;;;2.00;;
28170;SDS011;15458;53.346;-1.688;2022-09-13T08:28:57;3.40;;;1.90;;
28170;SDS011;15458;53.346;-1.688;2022-09-13T08:31:24;10.35;;;3.95;;
28170;SDS011;15458;53.346;-1.688;2022-09-13T08:33:50;7.70;;;3.42;;
28170;SDS011;15458;53.346;-1.688;2022-09-13T08:36:16;5.75;;;3.17;;
28170;SDS011;15458;53.346;-1.688;2022-09-13T08:38:49;12.43;;;3.17;;
28170;SDS011;15458;53.346;-1.688;2022-09-13T08:50:44;8.80;;;3.05;;
28170;SDS011;15458;53.346;-1.688;2022-09-13T08:55:50;6.45;;;3.40;;
28170;SDS011;15458;53.346;-1.688;2022-09-13T08:58:44;5.47;;;2.85;;
28170;SDS011;15458;53.346;-1.688;2022-09-13T09:07:11;10.32;;;3.05;;
28170;SDS011;15458;53.346;-1.688;2022-09-13T09:10:20;9.95;;;3.10;;
28170;SDS011;15458;53.346;-1.688;2022-09-13T09:12:41;7.18;;;3.10;;
28170;SDS011;15458;53.346;-1.688;2022-09-13T09:18:01;8.63;;;2.35;;
28170;SDS011;15458;53.346;-1.688;2022-09-13T09:20:41;7.90;;;1.50;;
28170;SDS011;15458;53.346;-1.688;2022-09-13T09:23:13;4.13;;;1.45;;
28170;SDS011;15458;53.346;-1.688;2022-09-13T09:25:45;11.05;;;1.92;;
28170;SDS011;15458;53.346;-1.688;2022-09-13T09:28:13;9.98;;;1.83;;
28170;SDS011;15458;53.346;-1.688;2022-09-13T09:35:54;4.28;;;1.20;;
28170;SDS011;15458;53.346;-1.688;2022-09-13T09:38:36;6.80;;;1.58;;
28170;SDS011;15458;53.346;-1.688;2022-09-13T09:41:17;8.90;;;1.67;;
28170;SDS011;15458;53.346;-1.688;2022-09-13T09:44:15;5.53;;;1.58;;
28170;SDS011;15458;53.346;-1.688;2022-09-13T09:46:41;6.30;;;1.40;;
28170;SDS011;15458;53.346;-1.688;2022-09-13T09:49:21;5.57;;;1.33;;
28170;SDS011;15458;53.346;-1.688;2022-09-13T09:52:16;5.13;;;1.05;;
28170;SDS011;15458;53.346;-1.688;2022-09-13T09:54:47;6.85;;;1.23;;
28170;SDS011;15458;53.346;-1.688;2022-09-13T09:57:14;3.60;;;1.40;;
28170;SDS011;15458;53.346;-1.688;2022-09-13T09:59:42;3.63;;;1.27;;
28170;SDS011;15458;53.346;-1.688;2022-09-13T10:02:13;6.47;;;1.55;;
28170;SDS011;15458;53.346;-1.688;2022-09-13T10:04:42;5.13;;;1.23;;
28170;SDS011;15458;53.346;-1.688;2022-09-13T10:09:58;5.47;;;1.27;;
28170;SDS011;15458;53.346;-1.688;2022-09-13T10:12:31;7.25;;;0.85;;
28170;SDS011;15458;53.346;-1.688;2022-09-13T10:15:18;2.55;;;1.02;;
28170;SDS011;15458;53.346;-1.688;2022-09-13T10:17:59;5.68;;;1.10;;
28170;SDS011;15458;53.346;-1.688;2022-09-13T10:20:40;4.68;;;0.93;;
28170;SDS011;15458;53.346;-1.688;2022-09-13T10:25:38;4.15;;;0.85;;
28170;SDS011;15458;53.346;-1.688;2022-09-13T10:28:05;4.82;;;0.90;;
28170;SDS011;15458;53.346;-1.688;2022-09-13T10:31:26;4.57;;;0.85;;
28170;SDS011;15458;53.346;-1.688;2022-09-13T10:36:27;2.80;;;0.63;;
28170;SDS011;15458;53.346;-1.688;2022-09-13T10:39:17;9.82;;;1.30;;
28170;SDS011;15458;53.346;-1.688;2022-09-13T10:41:48;6.25;;;0.60;;
28170;SDS011;15458;53.346;-1.688;2022-09-13T10:47:03;3.47;;;1.02;;
28170;SDS011;15458;53.346;-1.688;2022-09-13T10:49:39;4.30;;;0.90;;
28170;SDS011;15458;53.346;-1.688;2022-09-13T10:54:51;2.17;;;0.60;;
28170;SDS011;15458;53.346;-1.688;2022-09-13T10:57:31;2.72;;;0.80;;
28170;SDS011;15458;53.346;-1.688;2022-09-13T11:00:04;2.45;;;0.90;;
28170;SDS011;15458;53.346;-1.688;2022-09-13T11:08:30;2.30;;;0.60;;
28170;SDS011;15458;53.346;-1.688;2022-09-13T11:11:16;5.05;;;1.17;;
28170;SDS011;15458;53.346;-1.688;2022-09-13T11:14:47;2.35;;;0.60;;
28170;SDS011;15458;53.346;-1.688;2022-09-13T11:22:44;3.63;;;1.10;;
28170;SDS011;15458;53.346;-1.688;2022-09-13T11:39:30;4.13;;;0.90;;
28170;SDS011;15458;53.346;-1.688;2022-09-13T11:45:14;1.65;;;0.50;;
28170;SDS011;15458;53.346;-1.688;2022-09-13T11:47:57;2.70;;;0.77;;
28170;SDS011;15458;53.346;-1.688;2022-09-13T11:50:55;5.78;;;0.75;;
28170;SDS011;15458;53.346;-1.688;2022-09-13T11:56:26;3.78;;;0.60;;
28170;SDS011;15458;53.346;-1.688;2022-09-13T11:59:00;3.33;;;0.43;;
28170;SDS011;15458;53.346;-1.688;2022-09-13T12:01:53;12.45;;;1.60;;
28170;SDS011;15458;53.346;-1.688;2022-09-13T12:04:33;4.10;;;0.68;;
28170;SDS011;15458;53.346;-1.688;2022-09-13T12:07:12;2.42;;;0.70;;
28170;SDS011;15458;53.346;-1.688;2022-09-13T12:09:52;3.47;;;0.70;;
28170;SDS011;15458;53.346;-1.688;2022-09-13T12:12:28;3.20;;;0.47;;
28170;SDS011;15458;53.346;-1.688;2022-09-13T12:15:02;5.10;;;0.85;;
28170;SDS011;15458;53.346;-1.688;2022-09-13T12:17:39;5.05;;;0.82;;
28170;SDS011;15458;53.346;-1.688;2022-09-13T12:20:14;3.83;;;0.82;;
28170;SDS011;15458;53.346;-1.688;2022-09-13T12:22:53;4.05;;;0.80;;
28170;SDS011;15458;53.346;-1.688;2022-09-13T12:25:23;3.40;;;0.80;;
28170;SDS011;15458;53.346;-1.688;2022-09-13T12:30:49;2.83;;;0.73;;
28170;SDS011;15458;53.346;-1.688;2022-09-13T12:33:19;1.38;;;0.55;;
28170;SDS011;15458;53.346;-1.688;2022-09-13T12:43:58;2.85;;;0.70;;
28170;SDS011;15458;53.346;-1.688;2022-09-13T12:49:50;2.67;;;0.70;;
28170;SDS011;15458;53.346;-1.688;2022-09-13T12:52:58;1.58;;;0.40;;
28170;SDS011;15458;53.346;-1.688;2022-09-13T13:01:23;3.58;;;1.27;;
28170;SDS011;15458;53.346;-1.688;2022-09-13T13:06:32;3.08;;;0.60;;
28170;SDS011;15458;53.346;-1.688;2022-09-13T13:11:55;5.55;;;0.63;;
28170;SDS011;15458;53.346;-1.688;2022-09-13T13:16:54;1.80;;;0.60;;
28170;SDS011;15458;53.346;-1.688;2022-09-13T13:19:39;2.28;;;0.95;;
28170;SDS011;15458;53.346;-1.688;2022-09-13T13:28:50;3.25;;;0.80;;
28170;SDS011;15458;53.346;-1.688;2022-09-13T13:33:48;4.25;;;0.55;;
28170;SDS011;15458;53.346;-1.688;2022-09-13T13:36:28;3.58;;;0.70;;
28170;SDS011;15458;53.346;-1.688;2022-09-13T13:38:58;2.97;;;0.68;;
28170;SDS011;15458;53.346;-1.688;2022-09-13T13:43:57;3.92;;;0.70;;
28170;SDS011;15458;53.346;-1.688;2022-09-13T13:46:47;2.78;;;0.60;;
28170;SDS011;15458;53.346;-1.688;2022-09-13T13:57:56;1.33;;;0.68;;
28170;SDS011;15458;53.346;-1.688;2022-09-13T14:10:53;3.08;;;0.70;;
28170;SDS011;15458;53.346;-1.688;2022-09-13T14:13:36;1.95;;;0.43;;
28170;SDS011;15458;53.346;-1.688;2022-09-13T14:16:08;1.00;;;0.47;;
28170;SDS011;15458;53.346;-1.688;2022-09-13T14:26:44;4.10;;;0.70;;
28170;SDS011;15458;53.346;-1.688;2022-09-13T14:29:14;3.40;;;0.73;;
28170;SDS011;15458;53.346;-1.688;2022-09-13T14:31:49;2.60;;;0.60;;
28170;SDS011;15458;53.346;-1.688;2022-09-13T14:34:22;5.30;;;0.57;;
28170;SDS011;15458;53.346;-1.688;2022-09-13T14:36:53;1.13;;;0.50;;
28170;SDS011;15458;53.346;-1.688;2022-09-13T14:39:24;1.25;;;0.50;;
28170;SDS011;15458;53.346;-1.688;2022-09-13T14:44:43;2.75;;;0.68;;
28170;SDS011;15458;53.346;-1.688;2022-09-13T14:47:18;2.45;;;0.65;;
28170;SDS011;15458;53.346;-1.688;2022-09-13T14:49:51;2.88;;;0.73;;
28170;SDS011;15458;53.346;-1.688;2022-09-13T14:52:33;4.68;;;1.17;;
28170;SDS011;15458;53.346;-1.688;2022-09-13T14:55:07;3.17;;;0.60;;
28170;SDS011;15458;53.346;-1.688;2022-09-13T14:57:41;2.15;;;0.90;;
28170;SDS011;15458;53.346;-1.688;2022-09-13T15:00:22;5.88;;;0.93;;
28170;SDS011;15458;53.346;-1.688;2022-09-13T15:02:52;1.17;;;0.50;;
28170;SDS011;15458;53.346;-1.688;2022-09-13T15:05:24;6.75;;;1.10;;
28170;SDS011;15458;53.346;-1.688;2022-09-13T15:07:56;3.65;;;0.80;;
28170;SDS011;15458;53.346;-1.688;2022-09-13T15:10:26;5.13;;;0.85;;
28170;SDS011;15458;53.346;-1.688;2022-09-13T15:15:37;3.63;;;0.88;;
28170;SDS011;15458;53.346;-1.688;2022-09-13T15:20:51;3.00;;;0.60;;
28170;SDS011;15458;53.346;-1.688;2022-09-13T15:23:33;6.03;;;0.70;;
28170;SDS011;15458;53.346;-1.688;2022-09-13T15:26:06;3.17;;;0.67;;
28170;SDS011;15458;53.346;-1.688;2022-09-13T15:31:09;3.08;;;0.70;;
28170;SDS011;15458;53.346;-1.688;2022-09-13T15:33:43;3.28;;;0.65;;
28170;SDS011;15458;53.346;-1.688;2022-09-13T15:38:58;2.53;;;0.63;;
28170;SDS011;15458;53.346;-1.688;2022-09-13T15:41:28;1.83;;;0.60;;
28170;SDS011;15458;53.346;-1.688;2022-09-13T15:43:59;3.58;;;0.90;;
28170;SDS011;15458;53.346;-1.688;2022-09-13T15:46:27;2.65;;;1.17;;
28170;SDS011;15458;53.346;-1.688;2022-09-13T15:49:14;5.18;;;0.90;;
28170;SDS011;15458;53.346;-1.688;2022-09-13T15:51:42;4.55;;;0.75;;
28170;SDS011;15458;53.346;-1.688;2022-09-13T15:54:12;4.72;;;0.90;;
28170;SDS011;15458;53.346;-1.688;2022-09-13T15:56:43;6.05;;;0.90;;
28170;SDS011;15458;53.346;-1.688;2022-09-13T15:59:15;6.72;;;1.30;;
28170;SDS011;15458;53.346;-1.688;2022-09-13T16:01:43;5.72;;;0.85;;
28170;SDS011;15458;53.346;-1.688;2022-09-13T16:04:12;2.53;;;0.80;;
28170;SDS011;15458;53.346;-1.688;2022-09-13T16:06:40;3.72;;;1.20;;
28170;SDS011;15458;53.346;-1.688;2022-09-13T16:09:13;3.67;;;0.80;;
28170;SDS011;15458;53.346;-1.688;2022-09-13T16:11:43;5.28;;;0.80;;
28170;SDS011;15458;53.346;-1.688;2022-09-13T16:14:09;2.63;;;1.05;;
28170;SDS011;15458;53.346;-1.688;2022-09-13T16:16:39;7.68;;;1.40;;
28170;SDS011;15458;53.346;-1.688;2022-09-13T16:19:07;4.85;;;0.80;;
28170;SDS011;15458;53.346;-1.688;2022-09-13T16:21:41;4.68;;;1.77;;
28170;SDS011;15458;53.346;-1.688;2022-09-13T16:24:07;7.10;;;2.38;;
28170;SDS011;15458;53.346;-1.688;2022-09-13T16:26:33;5.63;;;1.40;;
28170;SDS011;15458;53.346;-1.688;2022-09-13T16:28:59;3.15;;;1.05;;
28170;SDS011;15458;53.346;-1.688;2022-09-13T16:31:25;4.45;;;0.95;;
28170;SDS011;15458;53.346;-1.688;2022-09-13T16:33:51;4.10;;;1.20;;
28170;SDS011;15458;53.346;-1.688;2022-09-13T16:36:17;3.00;;;0.90;;
28170;SDS011;15458;53.346;-1.688;2022-09-13T16:38:45;4.18;;;0.80;;
28170;SDS011;15458;53.346;-1.688;2022-09-13T16:41:11;2.97;;;0.80;;
28170;SDS011;15458;53.346;-1.688;2022-09-13T16:43:37;3.65;;;1.10;;
28170;SDS011;15458;53.346;-1.688;2022-09-13T16:46:06;4.00;;;0.93;;
28170;SDS011;15458;53.346;-1.688;2022-09-13T16:48:34;6.32;;;1.02;;
28170;SDS011;15458;53.346;-1.688;2022-09-13T16:51:02;3.28;;;1.00;;
28170;SDS011;15458;53.346;-1.688;2022-09-13T16:53:42;2.60;;;0.80;;
28170;SDS011;15458;53.346;-1.688;2022-09-13T16:56:12;5.97;;;1.00;;
28170;SDS011;15458;53.346;-1.688;2022-09-13T16:58:42;2.80;;;1.00;;
28170;SDS011;15458;53.346;-1.688;2022-09-13T17:01:13;3.08;;;1.10;;
28170;SDS011;15458;53.346;-1.688;2022-09-13T17:03:41;4.10;;;1.23;;
28170;SDS011;15458;53.346;-1.688;2022-09-13T17:06:07;8.88;;;1.88;;
28170;SDS011;15458;53.346;-1.688;2022-09-13T17:08:37;7.22;;;1.20;;
28170;SDS011;15458;53.346;-1.688;2022-09-13T17:11:11;4.90;;;1.20;;
28170;SDS011;15458;53.346;-1.688;2022-09-13T17:13:39;4.75;;;1.13;;
28170;SDS011;15458;53.346;-1.688;2022-09-13T17:16:15;6.38;;;1.23;;
28170;SDS011;15458;53.346;-1.688;2022-09-13T17:18:53;3.33;;;1.40;;
28170;SDS011;15458;53.346;-1.688;2022-09-13T17:21:21;7.15;;;1.40;;
28170;SDS011;15458;53.346;-1.688;2022-09-13T17:23:48;3.63;;;1.50;;
28170;SDS011;15458;53.346;-1.688;2022-09-13T17:26:15;4.82;;;1.33;;
28170;SDS011;15458;53.346;-1.688;2022-09-13T17:28:40;5.35;;;1.33;;
28170;SDS011;15458;53.346;-1.688;2022-09-13T17:31:06;4.60;;;1.45;;
28170;SDS011;15458;53.346;-1.688;2022-09-13T17:33:32;5.78;;;1.40;;
28170;SDS011;15458;53.346;-1.688;2022-09-13T17:35:59;6.28;;;1.67;;
28170;SDS011;15458;53.346;-1.688;2022-09-13T17:38:26;23.95;;;10.25;;
28170;SDS011;15458;53.346;-1.688;2022-09-13T17:41:03;105.50;;;45.10;;
28170;SDS011;15458;53.346;-1.688;2022-09-13T17:43:30;81.70;;;36.28;;
28170;SDS011;15458;53.346;-1.688;2022-09-13T17:46:05;67.45;;;30.05;;
28170;SDS011;15458;53.346;-1.688;2022-09-13T17:48:34;48.58;;;21.02;;
28170;SDS011;15458;53.346;-1.688;2022-09-13T17:51:00;28.08;;;10.68;;
28170;SDS011;15458;53.346;-1.688;2022-09-13T17:53:35;26.35;;;11.13;;
28170;SDS011;15458;53.346;-1.688;2022-09-13T17:56:03;44.13;;;19.95;;
28170;SDS011;15458;53.346;-1.688;2022-09-13T17:58:29;61.20;;;25.80;;
28170;SDS011;15458;53.346;-1.688;2022-09-13T18:14:58;88.85;;;39.78;;
28170;SDS011;15458;53.346;-1.688;2022-09-13T18:17:24;48.40;;;23.05;;
28170;SDS011;15458;53.346;-1.688;2022-09-13T18:19:49;33.28;;;12.35;;
28170;SDS011;15458;53.346;-1.688;2022-09-13T18:22:15;22.38;;;6.88;;
28170;SDS011;15458;53.346;-1.688;2022-09-13T18:24:41;9.43;;;3.47;;
28170;SDS011;15458;53.346;-1.688;2022-09-13T18:27:07;14.00;;;3.25;;
28170;SDS011;15458;53.346;-1.688;2022-09-13T18:40:31;5.82;;;1.65;;
28170;SDS011;15458;53.346;-1.688;2022-09-13T18:42:57;6.00;;;1.48;;
28170;SDS011;15458;53.346;-1.688;2022-09-13T18:45:24;14.05;;;2.58;;
28170;SDS011;15458;53.346;-1.688;2022-09-13T18:47:50;5.93;;;2.42;;
28170;SDS011;15458;53.346;-1.688;2022-09-13T18:50:15;8.57;;;3.55;;
28170;SDS011;15458;53.346;-1.688;2022-09-13T18:52:41;12.18;;;4.32;;
28170;SDS011;15458;53.346;-1.688;2022-09-13T18:55:07;17.85;;;5.75;;